sensor_id;sensor_type;location;lat;lon;timestamp;pressure;altitude;pressure_sealevel;temperature;humidity
49122;BME280;35529;44.342;25.944;2023-11-22T00:01:38;100141.50;;;9.59;100.00
49122;BME280;35529;44.342;25.944;2023-11-22T00:04:04;100140.25;;;9.54;100.00
49122;BME280;35529;44.342;25.944;2023-11-22T00:06:31;100144.94;;;9.46;100.00
49122;BME280;35529;44.342;25.944;2023-11-22T00:08:57;100142.03;;;9.41;100.00
49122;BME280;35529;44.342;25.944;2023-11-22T00:11:23;100142.66;;;9.43;100.00
49122;BME280;35529;44.342;25.944;2023-11-22T00:13:50;100147.38;;;9.47;100.00
49122;BME280;35529;44.342;25.944;2023-11-22T00:16:21;100150.63;;;9.49;100.00
49122;BME280;35529;44.342;25.944;2023-11-22T00:18:47;100153.06;;;9.51;100.00
49122;BME280;35529;44.342;25.944;2023-11-22T00:21:13;100156.75;;;9.50;100.00
49122;BME280;35529;44.342;25.944;2023-11-22T00:23:39;100150.84;;;9.54;100.00
49122;BME280;35529;44.342;25.944;2023-11-22T00:26:05;100148.00;;;9.56;100.00
49122;BME280;35529;44.342;25.944;2023-11-22T00:28:32;100147.78;;;9.51;100.00
49122;BME280;35529;44.342;25.944;2023-11-22T00:30:58;100149.63;;;9.50;100.00
49122;BME280;35529;44.342;25.944;2023-11-22T00:33:24;100147.38;;;9.47;100.00
49122;BME280;35529;44.342;25.944;2023-11-22T00:35:51;100142.31;;;9.52;100.00
49122;BME280;35529;44.342;25.944;2023-11-22T00:38:19;100150.66;;;9.56;100.00
49122;BME280;35529;44.342;25.944;2023-11-22T00:40:45;100146.56;;;9.53;100.00
49122;BME280;35529;44.342;25.944;2023-11-22T00:43:11;100136.81;;;9.54;100.00
49122;BME280;35529;44.342;25.944;2023-11-22T00:45:37;100133.50;;;9.52;100.00
49122;BME280;35529;44.342;25.944;2023-11-22T00:48:03;100139.81;;;9.51;100.00
49122;BME280;35529;44.342;25.944;2023-11-22T00:50:32;100150.66;;;9.56;100.00
49122;BME280;35529;44.342;25.944;2023-11-22T00:52:58;100150.66;;;9.56;100.00
49122;BME280;35529;44.342;25.944;2023-11-22T00:55:26;100146.22;;;9.63;100.00
49122;BME280;35529;44.342;25.944;2023-11-22T00:57:52;100156.00;;;9.69;100.00
49122;BME280;35529;44.342;25.944;2023-11-22T01:00:18;100151.94;;;9.73;100.00
49122;BME280;35529;44.342;25.944;2023-11-22T01:02:45;100154.38;;;9.75;100.00
49122;BME280;35529;44.342;25.944;2023-11-22T01:05:11;100151.75;;;9.75;100.00
49122;BME280;35529;44.342;25.944;2023-11-22T01:07:37;100156.03;;;9.76;100.00
49122;BME280;35529;44.342;25.944;2023-11-22T01:10:04;100155.03;;;9.84;100.00
49122;BME280;35529;44.342;25.944;2023-11-22T01:12:33;100158.50;;;9.84;100.00
49122;BME280;35529;44.342;25.944;2023-11-22T01:15:01;100158.13;;;9.87;100.00
49122;BME280;35529;44.342;25.944;2023-11-22T01:17:30;100160.78;;;9.87;100.00
49122;BME280;35529;44.342;25.944;2023-11-22T01:19:56;100158.09;;;9.81;100.00
49122;BME280;35529;44.342;25.944;2023-11-22T01:22:24;100160.34;;;9.84;100.00
49122;BME280;35529;44.342;25.944;2023-11-22T01:24:50;100158.72;;;9.83;100.00
49122;BME280;35529;44.342;25.944;2023-11-22T01:27:16;100151.75;;;9.82;100.00
49122;BME280;35529;44.342;25.944;2023-11-22T01:29:42;100149.09;;;9.82;100.00
49122;BME280;35529;44.342;25.944;2023-11-22T01:32:08;100154.56;;;9.67;100.00
49122;BME280;35529;44.342;25.944;2023-11-22T01:34:34;100145.78;;;9.60;100.00
49122;BME280;35529;44.342;25.944;2023-11-22T01:37:01;100142.91;;;9.54;100.00
49122;BME280;35529;44.342;25.944;2023-11-22T01:39:27;100143.13;;;9.53;100.00
49122;BME280;35529;44.342;25.944;2023-11-22T01:41:53;100134.97;;;9.54;100.00
49122;BME280;35529;44.342;25.944;2023-11-22T01:44:20;100138.41;;;9.55;100.00
49122;BME280;35529;44.342;25.944;2023-11-22T01:46:46;100135.94;;;9.47;100.00
49122;BME280;35529;44.342;25.944;2023-11-22T01:49:12;100131.03;;;9.44;100.00
49122;BME280;35529;44.342;25.944;2023-11-22T01:51:39;100127.38;;;9.45;100.00
49122;BME280;35529;44.342;25.944;2023-11-22T01:54:06;100131.28;;;9.49;100.00
49122;BME280;35529;44.342;25.944;2023-11-22T01:56:33;100128.22;;;9.52;100.00
49122;BME280;35529;44.342;25.944;2023-11-22T01:59:00;100122.50;;;9.55;100.00
49122;BME280;35529;44.342;25.944;2023-11-22T02:01:26;100130.06;;;9.51;100.00
49122;BME280;35529;44.342;25.944;2023-11-22T02:03:53;100131.88;;;9.51;100.00
49122;BME280;35529;44.342;25.944;2023-11-22T02:06:19;100129.84;;;9.46;100.00
49122;BME280;35529;44.342;25.944;2023-11-22T02:08:47;100130.63;;;9.47;100.00
49122;BME280;35529;44.342;25.944;2023-11-22T02:11:16;100130.44;;;9.48;100.00
49122;BME280;35529;44.342;25.944;2023-11-22T02:13:42;100129.22;;;9.51;100.00
49122;BME280;35529;44.342;25.944;2023-11-22T02:16:08;100131.03;;;9.44;100.00
49122;BME280;35529;44.342;25.944;2023-11-22T02:18:34;100131.44;;;9.41;100.00
49122;BME280;35529;44.342;25.944;2023-11-22T02:21:02;100127.97;;;9.40;100.00
49122;BME280;35529;44.342;25.944;2023-11-22T02:23:29;100128.38;;;9.37;100.00
49122;BME280;35529;44.342;25.944;2023-11-22T02:25:55;100136.72;;;9.34;100.00
49122;BME280;35529;44.342;25.944;2023-11-22T02:28:21;100134.06;;;9.34;100.00
49122;BME280;35529;44.342;25.944;2023-11-22T02:30:47;100128.75;;;9.34;100.00
49122;BME280;35529;44.342;25.944;2023-11-22T02:33:13;100130.81;;;9.38;100.00
49122;BME280;35529;44.342;25.944;2023-11-22T02:35:39;100130.25;;;9.43;100.00
49122;BME280;35529;44.342;25.944;2023-11-22T02:38:06;100129.59;;;9.41;100.00
49122;BME280;35529;44.342;25.944;2023-11-22T02:40:32;100138.34;;;9.42;100.00
49122;BME280;35529;44.342;25.944;2023-11-22T02:42:59;100130.41;;;9.42;100.00
49122;BME280;35529;44.342;25.944;2023-11-22T02:45:33;100129.81;;;9.39;100.00
49122;BME280;35529;44.342;25.944;2023-11-22T02:48:01;100126.16;;;9.41;100.00
49122;BME280;35529;44.342;25.944;2023-11-22T02:50:29;100124.72;;;9.45;100.00
49122;BME280;35529;44.342;25.944;2023-11-22T02:52:58;100120.44;;;9.44;100.00
49122;BME280;35529;44.342;25.944;2023-11-22T02:55:31;100140.19;;;9.41;100.00
49122;BME280;35529;44.342;25.944;2023-11-22T02:58:00;100140.63;;;9.45;100.00
49122;BME280;35529;44.342;25.944;2023-11-22T03:00:26;100145.53;;;9.48;100.00
49122;BME280;35529;44.342;25.944;2023-11-22T03:02:54;100147.78;;;9.51;100.00
49122;BME280;35529;44.342;25.944;2023-11-22T03:05:20;100147.38;;;9.47;100.00
49122;BME280;35529;44.342;25.944;2023-11-22T03:07:47;100147.97;;;9.49;100.00
49122;BME280;35529;44.342;25.944;2023-11-22T03:10:13;100162.47;;;9.53;100.00
49122;BME280;35529;44.342;25.944;2023-11-22T03:12:39;100155.94;;;9.49;100.00
49122;BME280;35529;44.342;25.944;2023-11-22T03:15:05;100174.44;;;9.43;100.00
49122;BME280;35529;44.342;25.944;2023-11-22T03:17:31;100164.47;;;9.45;100.00
49122;BME280;35529;44.342;25.944;2023-11-22T03:19:58;100171.41;;;9.39;100.00
49122;BME280;35529;44.342;25.944;2023-11-22T03:22:26;100177.91;;;9.36;100.00
49122;BME280;35529;44.342;25.944;2023-11-22T03:24:56;100176.28;;;9.42;100.00
49122;BME280;35529;44.342;25.944;2023-11-22T03:27:22;100175.88;;;9.45;100.00
49122;BME280;35529;44.342;25.944;2023-11-22T03:29:49;100179.97;;;9.48;100.00
49122;BME280;35529;44.342;25.944;2023-11-22T03:32:15;100173.69;;;9.49;100.00
49122;BME280;35529;44.342;25.944;2023-11-22T03:34:41;100176.31;;;9.49;100.00
49122;BME280;35529;44.342;25.944;2023-11-22T03:37:07;100173.69;;;9.49;100.00
49122;BME280;35529;44.342;25.944;2023-11-22T03:39:33;100182.84;;;9.46;100.00
49122;BME280;35529;44.342;25.944;2023-11-22T03:41:59;100173.47;;;9.50;100.00
49122;BME280;35529;44.342;25.944;2023-11-22T03:44:25;100170.63;;;9.52;100.00
49122;BME280;35529;44.342;25.944;2023-11-22T03:46:51;100169.00;;;9.57;100.00
49122;BME280;35529;44.342;25.944;2023-11-22T03:49:17;100183.91;;;9.59;100.00
49122;BME280;35529;44.342;25.944;2023-11-22T03:51:43;100171.84;;;9.56;100.00
49122;BME280;35529;44.342;25.944;2023-11-22T03:54:09;100166.56;;;9.56;100.00
49122;BME280;35529;44.342;25.944;2023-11-22T03:56:36;100175.94;;;9.52;100.00
49122;BME280;35529;44.342;25.944;2023-11-22T03:59:02;100170.19;;;9.48;100.00
49122;BME280;35529;44.342;25.944;2023-11-22T04:01:29;100164.09;;;9.48;100.00
49122;BME280;35529;44.342;25.944;2023-11-22T04:03:55;100166.13;;;9.46;100.00
49122;BME280;35529;44.342;25.944;2023-11-22T04:06:21;100173.00;;;9.40;100.00
49122;BME280;35529;44.342;25.944;2023-11-22T04:08:48;100178.75;;;9.44;100.00
49122;BME280;35529;44.342;25.944;2023-11-22T04:11:15;100183.03;;;9.45;100.00
49122;BME280;35529;44.342;25.944;2023-11-22T04:13:42;100165.50;;;9.44;100.00
49122;BME280;35529;44.342;25.944;2023-11-22T04:16:08;100177.47;;;9.33;100.00
49122;BME280;35529;44.342;25.944;2023-11-22T04:18:40;100175.00;;;9.31;100.00
49122;BME280;35529;44.342;25.944;2023-11-22T04:21:06;100188.50;;;9.36;100.00
49122;BME280;35529;44.342;25.944;2023-11-22T04:23:33;100194.59;;;9.37;100.00
49122;BME280;35529;44.342;25.944;2023-11-22T04:25:59;100196.25;;;9.38;100.00
49122;BME280;35529;44.342;25.944;2023-11-22T04:28:26;100199.91;;;9.37;100.00
49122;BME280;35529;44.342;25.944;2023-11-22T04:30:53;100199.09;;;9.36;100.00
49122;BME280;35529;44.342;25.944;2023-11-22T04:33:19;100207.25;;;9.42;100.00
49122;BME280;35529;44.342;25.944;2023-11-22T04:35:47;100194.66;;;9.44;100.00
49122;BME280;35529;44.342;25.944;2023-11-22T04:38:13;100207.69;;;9.45;100.00
49122;BME280;35529;44.342;25.944;2023-11-22T04:40:39;100210.13;;;9.47;100.00
49122;BME280;35529;44.342;25.944;2023-11-22T04:43:05;100218.50;;;9.44;100.00
49122;BME280;35529;44.342;25.944;2023-11-22T04:45:32;100218.94;;;9.47;100.00
49122;BME280;35529;44.342;25.944;2023-11-22T04:47:58;100220.38;;;9.50;100.00
49122;BME280;35529;44.342;25.944;2023-11-22T04:50:24;100214.66;;;9.53;100.00
49122;BME280;35529;44.342;25.944;2023-11-22T04:52:50;100212.03;;;9.53;100.00
49122;BME280;35529;44.342;25.944;2023-11-22T04:55:17;100219.97;;;9.53;100.00
49122;BME280;35529;44.342;25.944;2023-11-22T04:57:45;100225.28;;;9.53;100.00
49122;BME280;35529;44.342;25.944;2023-11-22T05:00:11;100224.25;;;9.54;100.00
49122;BME280;35529;44.342;25.944;2023-11-22T05:02:37;100220.97;;;9.52;100.00
49122;BME280;35529;44.342;25.944;2023-11-22T05:05:03;100226.13;;;9.60;100.00
49122;BME280;35529;44.342;25.944;2023-11-22T05:07:30;100221.88;;;9.66;100.00
49122;BME280;35529;44.342;25.944;2023-11-22T05:09:56;100225.34;;;9.66;100.00
49122;BME280;35529;44.342;25.944;2023-11-22T05:12:22;100224.91;;;9.63;100.00
49122;BME280;35529;44.342;25.944;2023-11-22T05:14:49;100217.16;;;9.61;100.00
49122;BME280;35529;44.342;25.944;2023-11-22T05:17:15;100220.59;;;9.62;100.00
49122;BME280;35529;44.342;25.944;2023-11-22T05:19:41;100226.34;;;9.65;100.00
49122;BME280;35529;44.342;25.944;2023-11-22T05:22:07;100228.41;;;9.63;100.00
49122;BME280;35529;44.342;25.944;2023-11-22T05:24:33;100240.19;;;9.61;100.00
49122;BME280;35529;44.342;25.944;2023-11-22T05:27:00;100240.16;;;9.54;100.00
49122;BME280;35529;44.342;25.944;2023-11-22T05:29:27;100243.63;;;9.54;100.00
49122;BME280;35529;44.342;25.944;2023-11-22T05:31:54;100251.63;;;9.61;100.00
49122;BME280;35529;44.342;25.944;2023-11-22T05:34:20;100248.53;;;9.57;100.00
49122;BME280;35529;44.342;25.944;2023-11-22T05:36:46;100251.38;;;9.56;100.00
49122;BME280;35529;44.342;25.944;2023-11-22T05:39:12;100252.63;;;9.60;100.00
49122;BME280;35529;44.342;25.944;2023-11-22T05:41:38;100256.31;;;9.59;100.00
49122;BME280;35529;44.342;25.944;2023-11-22T05:44:04;100262.22;;;9.61;100.00
49122;BME280;35529;44.342;25.944;2023-11-22T05:46:30;100258.56;;;9.62;100.00
49122;BME280;35529;44.342;25.944;2023-11-22T05:48:56;100259.81;;;9.66;100.00
49122;BME280;35529;44.342;25.944;2023-11-22T05:51:22;100252.09;;;9.71;100.00
49122;BME280;35529;44.342;25.944;2023-11-22T05:53:49;100253.94;;;9.78;100.00
49122;BME280;35529;44.342;25.944;2023-11-22T05:56:15;100251.69;;;9.75;100.00
49122;BME280;35529;44.342;25.944;2023-11-22T05:58:42;100253.94;;;9.78;100.00
49122;BME280;35529;44.342;25.944;2023-11-22T06:01:09;100254.78;;;9.78;100.00
49122;BME280;35529;44.342;25.944;2023-11-22T06:03:35;100252.50;;;9.75;100.00
49122;BME280;35529;44.342;25.944;2023-11-22T06:06:02;100270.03;;;9.76;100.00
49122;BME280;35529;44.342;25.944;2023-11-22T06:08:30;100271.88;;;9.76;100.00
49122;BME280;35529;44.342;25.944;2023-11-22T06:10:58;100298.00;;;9.79;100.00
49122;BME280;35529;44.342;25.944;2023-11-22T06:13:26;100301.28;;;9.81;100.00
49122;BME280;35529;44.342;25.944;2023-11-22T06:15:52;100310.84;;;9.82;100.00
49122;BME280;35529;44.342;25.944;2023-11-22T06:18:18;100318.00;;;9.81;100.00
49122;BME280;35529;44.342;25.944;2023-11-22T06:20:45;100311.47;;;9.77;100.00
49122;BME280;35529;44.342;25.944;2023-11-22T06:23:11;100310.44;;;9.78;100.00
49122;BME280;35529;44.342;25.944;2023-11-22T06:25:37;100317.19;;;9.81;100.00
49122;BME280;35529;44.342;25.944;2023-11-22T06:28:03;100315.38;;;9.88;100.00
49122;BME280;35529;44.342;25.944;2023-11-22T06:30:29;100330.06;;;9.84;100.00
49122;BME280;35529;44.342;25.944;2023-11-22T06:32:56;100339.63;;;9.78;100.00
49122;BME280;35529;44.342;25.944;2023-11-22T06:35:22;100335.88;;;9.66;100.00
49122;BME280;35529;44.342;25.944;2023-11-22T06:37:48;100345.63;;;9.65;100.00
49122;BME280;35529;44.342;25.944;2023-11-22T06:40:14;100345.13;;;9.77;100.00
49122;BME280;35529;44.342;25.944;2023-11-22T06:42:42;100351.28;;;9.84;100.00
49122;BME280;35529;44.342;25.944;2023-11-22T06:45:09;100346.81;;;9.91;100.00
49122;BME280;35529;44.342;25.944;2023-11-22T06:47:39;100348.66;;;9.90;100.00
49122;BME280;35529;44.342;25.944;2023-11-22T06:50:05;100351.50;;;9.89;100.00
49122;BME280;35529;44.342;25.944;2023-11-22T06:52:35;100347.41;;;9.86;100.00
49122;BME280;35529;44.342;25.944;2023-11-22T06:55:02;100358.88;;;9.94;100.00
49122;BME280;35529;44.342;25.944;2023-11-22T06:57:28;100362.97;;;9.96;100.00
49122;BME280;35529;44.342;25.944;2023-11-22T06:59:55;100352.53;;;9.88;100.00
49122;BME280;35529;44.342;25.944;2023-11-22T07:02:21;100362.88;;;9.83;100.00
49122;BME280;35529;44.342;25.944;2023-11-22T07:04:48;100356.56;;;9.84;100.00
49122;BME280;35529;44.342;25.944;2023-11-22T07:07:14;100360.63;;;9.80;100.00
49122;BME280;35529;44.342;25.944;2023-11-22T07:09:44;100370.59;;;9.78;100.00
49122;BME280;35529;44.342;25.944;2023-11-22T07:12:10;100379.44;;;9.85;100.00
49122;BME280;35529;44.342;25.944;2023-11-22T07:14:36;100389.84;;;9.86;100.00
49122;BME280;35529;44.342;25.944;2023-11-22T07:17:03;100395.16;;;9.86;100.00
49122;BME280;35529;44.342;25.944;2023-11-22T07:19:29;100402.31;;;9.86;100.00
49122;BME280;35529;44.342;25.944;2023-11-22T07:21:55;100419.22;;;9.85;100.00
49122;BME280;35529;44.342;25.944;2023-11-22T07:24:21;100419.63;;;9.88;100.00
49122;BME280;35529;44.342;25.944;2023-11-22T07:26:47;100428.41;;;9.89;100.00
49122;BME280;35529;44.342;25.944;2023-11-22T07:29:13;100433.91;;;9.87;100.00
49122;BME280;35529;44.342;25.944;2023-11-22T07:31:39;100433.13;;;9.94;100.00
49122;BME280;35529;44.342;25.944;2023-11-22T07:34:05;100429.28;;;9.96;100.00
49122;BME280;35529;44.342;25.944;2023-11-22T07:36:37;100434.38;;;9.98;100.00
49122;BME280;35529;44.342;25.944;2023-11-22T07:39:06;100446.63;;;9.99;100.00
49122;BME280;35529;44.342;25.944;2023-11-22T07:41:32;100441.94;;;9.94;100.00
49122;BME280;35529;44.342;25.944;2023-11-22T07:44:00;100450.31;;;9.98;100.00
49122;BME280;35529;44.342;25.944;2023-11-22T07:46:26;100459.91;;;9.99;100.00
49122;BME280;35529;44.342;25.944;2023-11-22T07:48:53;100456.19;;;9.93;100.00
49122;BME280;35529;44.342;25.944;2023-11-22T07:51:19;100450.66;;;9.88;100.00
49122;BME280;35529;44.342;25.944;2023-11-22T07:53:45;100456.81;;;9.95;100.00
49122;BME280;35529;44.342;25.944;2023-11-22T07:56:11;100460.84;;;9.91;100.00
49122;BME280;35529;44.342;25.944;2023-11-22T07:58:37;100460.50;;;9.94;100.00
49122;BME280;35529;44.342;25.944;2023-11-22T08:01:03;100473.16;;;9.99;100.00
49122;BME280;35529;44.342;25.944;2023-11-22T08:03:30;100481.31;;;9.97;100.00
49122;BME280;35529;44.342;25.944;2023-11-22T08:05:56;100472.16;;;10.00;100.00
49122;BME280;35529;44.342;25.944;2023-11-22T08:08:22;100474.38;;;9.96;100.00
49122;BME280;35529;44.342;25.944;2023-11-22T08:10:49;100481.97;;;9.99;100.00
49122;BME280;35529;44.342;25.944;2023-11-22T08:13:19;100483.97;;;9.97;100.00
49122;BME280;35529;44.342;25.944;2023-11-22T08:15:48;100485.75;;;9.90;100.00
49122;BME280;35529;44.342;25.944;2023-11-22T08:18:15;100490.22;;;9.89;100.00
49122;BME280;35529;44.342;25.944;2023-11-22T08:20:42;100494.66;;;9.82;100.00
49122;BME280;35529;44.342;25.944;2023-11-22T08:23:09;100495.94;;;9.86;100.00
49122;BME280;35529;44.342;25.944;2023-11-22T08:25:36;100498.78;;;9.85;100.00
49122;BME280;35529;44.342;25.944;2023-11-22T08:28:04;100509.56;;;9.83;100.00
49122;BME280;35529;44.342;25.944;2023-11-22T08:30:34;100514.28;;;9.88;100.00
49122;BME280;35529;44.342;25.944;2023-11-22T08:33:01;100515.69;;;9.84;100.00
49122;BME280;35529;44.342;25.944;2023-11-22T08:35:28;100525.84;;;9.80;100.00
49122;BME280;35529;44.342;25.944;2023-11-22T08:37:54;100524.38;;;9.78;100.00
49122;BME280;35529;44.342;25.944;2023-11-22T08:40:23;100535.66;;;9.80;100.00
49122;BME280;35529;44.342;25.944;2023-11-22T08:42:49;100536.25;;;9.82;100.00
49122;BME280;35529;44.342;25.944;2023-11-22T08:45:15;100540.69;;;9.75;100.00
49122;BME280;35529;44.342;25.944;2023-11-22T08:47:41;100547.56;;;9.69;100.00
49122;BME280;35529;44.342;25.944;2023-11-22T08:50:08;100549.03;;;9.71;100.00
49122;BME280;35529;44.342;25.944;2023-11-22T08:52:37;100550.84;;;9.71;100.00
49122;BME280;35529;44.342;25.944;2023-11-22T08:55:05;100554.94;;;9.73;100.00
49122;BME280;35529;44.342;25.944;2023-11-22T08:57:36;100559.44;;;9.73;100.00
49122;BME280;35529;44.342;25.944;2023-11-22T09:00:06;100569.59;;;9.69;100.00
49122;BME280;35529;44.342;25.944;2023-11-22T09:02:35;100567.22;;;9.75;100.00
49122;BME280;35529;44.342;25.944;2023-11-22T09:05:02;100573.09;;;9.70;100.00
49122;BME280;35529;44.342;25.944;2023-11-22T09:07:32;100574.47;;;9.66;100.00
49122;BME280;35529;44.342;25.944;2023-11-22T09:09:59;100578.75;;;9.67;100.00
49122;BME280;35529;44.342;25.944;2023-11-22T09:12:25;100575.91;;;9.68;100.00
49122;BME280;35529;44.342;25.944;2023-11-22T09:14:52;100574.28;;;9.67;100.00
49122;BME280;35529;44.342;25.944;2023-11-22T09:17:19;100574.28;;;9.67;100.00
49122;BME280;35529;44.342;25.944;2023-11-22T09:19:46;100567.22;;;9.75;100.00
49122;BME280;35529;44.342;25.944;2023-11-22T09:22:13;100578.06;;;9.80;100.00
49122;BME280;35529;44.342;25.944;2023-11-22T09:24:40;100572.03;;;9.86;100.00
49122;BME280;35529;44.342;25.944;2023-11-22T09:27:06;100569.19;;;9.87;100.00
49122;BME280;35529;44.342;25.944;2023-11-22T09:29:36;100575.28;;;9.88;100.00
49122;BME280;35529;44.342;25.944;2023-11-22T09:32:02;100574.28;;;9.89;100.00
49122;BME280;35529;44.342;25.944;2023-11-22T09:34:28;100578.34;;;9.85;100.00
49122;BME280;35529;44.342;25.944;2023-11-22T09:36:55;100568.72;;;9.84;100.00
49122;BME280;35529;44.342;25.944;2023-11-22T09:39:21;100578.06;;;9.80;100.00
49122;BME280;35529;44.342;25.944;2023-11-22T09:41:47;100580.91;;;9.78;100.00
49122;BME280;35529;44.342;25.944;2023-11-22T09:44:14;100591.72;;;9.77;100.00
49122;BME280;35529;44.342;25.944;2023-11-22T09:46:42;100585.28;;;9.86;100.00
49122;BME280;35529;44.342;25.944;2023-11-22T09:49:08;100583.63;;;9.85;100.00
49122;BME280;35529;44.342;25.944;2023-11-22T09:51:37;100587.28;;;9.84;100.00
49122;BME280;35529;44.342;25.944;2023-11-22T09:54:07;100601.47;;;9.76;100.00
49122;BME280;35529;44.342;25.944;2023-11-22T09:56:38;100603.44;;;9.67;100.00
49122;BME280;35529;44.342;25.944;2023-11-22T09:59:04;100615.44;;;9.63;100.00
49122;BME280;35529;44.342;25.944;2023-11-22T10:01:32;100606.56;;;9.56;100.00
49122;BME280;35529;44.342;25.944;2023-11-22T10:04:02;100604.09;;;9.54;100.00
49122;BME280;35529;44.342;25.944;2023-11-22T10:06:31;100601.47;;;9.54;100.00
49122;BME280;35529;44.342;25.944;2023-11-22T10:09:01;100603.56;;;9.59;100.00
49122;BME280;35529;44.342;25.944;2023-11-22T10:11:27;100612.59;;;9.65;100.00
49122;BME280;35529;44.342;25.944;2023-11-22T10:13:54;100608.28;;;9.64;100.00
49122;BME280;35529;44.342;25.944;2023-11-22T10:16:23;100623.75;;;9.60;100.00
49122;BME280;35529;44.342;25.944;2023-11-22T10:18:49;100611.97;;;9.48;100.00
49122;BME280;35529;44.342;25.944;2023-11-22T10:21:22;100606.88;;;9.46;100.00
49122;BME280;35529;44.342;25.944;2023-11-22T10:23:48;100610.78;;;9.50;100.00
49122;BME280;35529;44.342;25.944;2023-11-22T10:26:17;100612.47;;;9.36;100.00
49122;BME280;35529;44.342;25.944;2023-11-22T10:28:43;100612.00;;;9.33;100.00
49122;BME280;35529;44.342;25.944;2023-11-22T10:31:10;100628.28;;;9.30;100.00
49122;BME280;35529;44.342;25.944;2023-11-22T10:33:42;100626.94;;;9.19;100.00
49122;BME280;35529;44.342;25.944;2023-11-22T10:36:09;100631.38;;;9.18;100.00
49122;BME280;35529;44.342;25.944;2023-11-22T10:38:35;100633.66;;;9.21;100.00
49122;BME280;35529;44.342;25.944;2023-11-22T10:41:05;100632.84;;;9.21;100.00
49122;BME280;35529;44.342;25.944;2023-11-22T10:43:31;100634.50;;;9.22;100.00
49122;BME280;35529;44.342;25.944;2023-11-22T10:46:04;100638.78;;;9.23;100.00
49122;BME280;35529;44.342;25.944;2023-11-22T10:48:35;100638.22;;;9.28;100.00
49122;BME280;35529;44.342;25.944;2023-11-22T10:51:02;100635.88;;;9.18;100.00
49122;BME280;35529;44.342;25.944;2023-11-22T10:56:18;100626.09;;;9.18;100.00
49122;BME280;35529;44.342;25.944;2023-11-22T10:58:47;100626.56;;;9.22;100.00
49122;BME280;35529;44.342;25.944;2023-11-22T11:01:17;100626.16;;;9.25;100.00
49122;BME280;35529;44.342;25.944;2023-11-22T11:03:51;100623.06;;;9.36;100.00
49122;BME280;35529;44.342;25.944;2023-11-22T11:06:23;100616.31;;;9.34;100.00
49122;BME280;35529;44.342;25.944;2023-11-22T11:08:54;100617.03;;;9.28;100.00
49122;BME280;35529;44.342;25.944;2023-11-22T11:11:21;100616.84;;;9.29;100.00
49122;BME280;35529;44.342;25.944;2023-11-22T11:13:48;100617.69;;;9.30;100.00
49122;BME280;35529;44.342;25.944;2023-11-22T11:16:15;100624.69;;;9.37;100.00
49122;BME280;35529;44.342;25.944;2023-11-22T11:18:42;100624.97;;;9.43;100.00
49122;BME280;35529;44.342;25.944;2023-11-22T11:21:09;100628.69;;;9.48;100.00
49122;BME280;35529;44.342;25.944;2023-11-22T11:23:38;100621.13;;;9.45;100.00
49122;BME280;35529;44.342;25.944;2023-11-22T11:26:09;100631.91;;;9.44;100.00
49122;BME280;35529;44.342;25.944;2023-11-22T11:28:42;100633.19;;;9.48;100.00
49122;BME280;35529;44.342;25.944;2023-11-22T11:31:08;100625.50;;;9.53;100.00
49122;BME280;35529;44.342;25.944;2023-11-22T11:33:52;100630.69;;;9.61;100.00
49122;BME280;35529;44.342;25.944;2023-11-22T11:36:23;100622.94;;;9.60;100.00
49122;BME280;35529;44.342;25.944;2023-11-22T11:38:52;100621.28;;;9.59;100.00
49122;BME280;35529;44.342;25.944;2023-11-22T11:41:24;100625.31;;;9.54;100.00
49122;BME280;35529;44.342;25.944;2023-11-22T11:43:51;100629.44;;;9.57;100.00
49122;BME280;35529;44.342;25.944;2023-11-22T11:46:17;100626.66;;;9.65;100.00
49122;BME280;35529;44.342;25.944;2023-11-22T11:48:44;100632.41;;;9.69;100.00
49122;BME280;35529;44.342;25.944;2023-11-22T11:51:14;100633.03;;;9.71;100.00
49122;BME280;35529;44.342;25.944;2023-11-22T11:53:41;100630.47;;;9.78;100.00
49122;BME280;35529;44.342;25.944;2023-11-22T11:56:07;100638.31;;;9.86;100.00
49122;BME280;35529;44.342;25.944;2023-11-22T11:58:34;100644.81;;;9.83;100.00
49122;BME280;35529;44.342;25.944;2023-11-22T12:01:00;100650.94;;;9.84;100.00
49122;BME280;35529;44.342;25.944;2023-11-22T12:03:26;100654.59;;;9.83;100.00
49122;BME280;35529;44.342;25.944;2023-11-22T12:05:52;100657.63;;;9.80;100.00
49122;BME280;35529;44.342;25.944;2023-11-22T12:08:18;100658.63;;;9.79;100.00
49122;BME280;35529;44.342;25.944;2023-11-22T12:10:45;100667.03;;;9.82;100.00
49122;BME280;35529;44.342;25.944;2023-11-22T12:13:18;100655.84;;;9.87;100.00
49122;BME280;35529;44.342;25.944;2023-11-22T12:15:44;100664.38;;;9.82;100.00
49122;BME280;35529;44.342;25.944;2023-11-22T12:18:10;100661.94;;;9.81;100.00
49122;BME280;35529;44.342;25.944;2023-11-22T12:20:39;100660.75;;;9.83;100.00
49122;BME280;35529;44.342;25.944;2023-11-22T12:23:05;100669.78;;;9.89;100.00
49122;BME280;35529;44.342;25.944;2023-11-22T12:25:32;100672.50;;;9.96;100.00
49122;BME280;35529;44.342;25.944;2023-11-22T12:27:58;100675.88;;;9.89;100.00
49122;BME280;35529;44.342;25.944;2023-11-22T12:30:42;100684.03;;;9.88;100.00
49122;BME280;35529;44.342;25.944;2023-11-22T12:33:09;100685.69;;;9.89;100.00
49122;BME280;35529;44.342;25.944;2023-11-22T12:35:36;100685.69;;;9.89;100.00
49122;BME280;35529;44.342;25.944;2023-11-22T12:38:04;100690.59;;;9.92;100.00
49122;BME280;35529;44.342;25.944;2023-11-22T12:40:31;100694.44;;;9.89;100.00
49122;BME280;35529;44.342;25.944;2023-11-22T12:42:59;100696.66;;;9.86;100.00